Time;durP1;ratioP1;P1;durP2;ratioP2;P2;SDS_P1;SDS_P2;PMS_P1;PMS_P2;Temp;Humidity;BMP_temperature;BMP_pressure;BME280_temperature;BME280_humidity;BME280_pressure;Samples;Min_cycle;Max_cycle;Signal;HPM_P1;HPM_P2
2023/12/08 00:01:22;;;;;;;47.55;34.97;;;;;;;1.07;100.00;95603.69;5029268;28;20029;-62
2023/12/08 00:03:47;;;;;;;61.83;43.47;;;;;;;1.09;100.00;95610.47;5023560;28;20508;-63
2023/12/08 00:06:13;;;;;;;42.53;28.85;;;;;;;1.11;100.00;95616.41;5023108;28;20025;-63
2023/12/08 00:08:39;;;;;;;31.10;25.50;;;;;;;1.11;100.00;95608.63;5014379;28;20026;-63
2023/12/08 00:11:05;;;;;;;37.33;29.42;;;;;;;1.13;100.00;95611.97;5022308;28;20033;-63
2023/12/08 00:13:31;;;;;;;30.45;25.70;;;;;;;1.14;100.00;95610.22;5030472;28;20040;-63
2023/12/08 00:15:56;;;;;;;35.55;27.35;;;;;;;1.28;100.00;95588.69;5034993;28;20112;-63
2023/12/08 00:18:22;;;;;;;32.80;25.67;;;;;;;1.22;100.00;95602.84;5017558;28;20033;-62
2023/12/08 00:20:47;;;;;;;29.73;23.98;;;;;;;1.19;100.00;95602.16;5027943;28;20035;-63
2023/12/08 00:23:14;;;;;;;32.15;24.63;;;;;;;1.16;100.00;95594.56;5032369;28;20624;-62
2023/12/08 00:25:40;;;;;;;38.80;33.17;;;;;;;1.17;100.00;95598.84;5034679;28;20104;-62
2023/12/08 00:28:05;;;;;;;38.83;29.83;;;;;;;1.16;100.00;95582.44;5027716;28;20058;-62
2023/12/08 00:30:31;;;;;;;33.50;28.08;;;;;;;1.20;100.00;95588.28;5019630;28;20029;-63
2023/12/08 00:32:56;;;;;;;31.25;24.33;;;;;;;1.26;100.00;95572.41;5030861;28;20599;-63
2023/12/08 00:35:22;;;;;;;25.25;21.10;;;;;;;1.24;100.00;95582.84;5026134;28;20489;-63
2023/12/08 00:37:47;;;;;;;22.58;18.40;;;;;;;1.23;100.00;95569.97;5028043;28;21222;-63
2023/12/08 00:40:13;;;;;;;22.95;18.80;;;;;;;1.21;100.00;95580.44;5027458;28;20116;-62
2023/12/08 00:42:39;;;;;;;19.67;16.73;;;;;;;1.25;100.00;95571.53;5030288;28;21200;-63
2023/12/08 00:45:04;;;;;;;16.23;13.82;;;;;;;1.47;100.00;95574.69;5025076;28;20419;-62
2023/12/08 00:47:30;;;;;;;12.43;9.52;;;;;;;1.54;100.00;95560.41;5028343;28;20029;-63
2023/12/08 00:49:57;;;;;;;9.80;7.43;;;;;;;2.32;100.00;95576.56;5017583;28;20111;-62
2023/12/08 00:52:23;;;;;;;8.85;7.95;;;;;;;2.37;100.00;95585.75;5016824;28;20761;-63
2023/12/08 00:54:48;;;;;;;10.60;9.48;;;;;;;2.26;100.00;95599.41;5019953;28;20048;-62
2023/12/08 00:57:13;;;;;;;9.70;8.70;;;;;;;2.20;100.00;95597.19;5022300;28;20030;-62
2023/12/08 00:59:39;;;;;;;2.95;2.75;;;;;;;3.74;100.00;95590.13;5016715;28;20041;-62
2023/12/08 01:02:04;;;;;;;3.25;2.60;;;;;;;4.44;100.00;95583.69;5025911;28;20029;-62
2023/12/08 01:04:29;;;;;;;3.63;2.95;;;;;;;4.85;100.00;95558.22;5017660;28;20118;-63
2023/12/08 01:06:55;;;;;;;2.92;2.72;;;;;;;4.97;100.00;95540.00;5017767;28;20473;-63
2023/12/08 01:09:20;;;;;;;3.40;2.90;;;;;;;4.92;100.00;95531.69;5028171;28;20478;-62
2023/12/08 01:11:45;;;;;;;2.95;2.70;;;;;;;4.92;100.00;95539.50;5025991;28;20454;-63
2023/12/08 01:14:11;;;;;;;5.32;3.78;;;;;;;4.73;100.00;95541.66;5030769;28;20025;-62
2023/12/08 01:16:43;;;;;;;4.82;4.43;;;;;;;4.20;100.00;95557.53;5015170;28;20081;-63
2023/12/08 01:19:10;;;;;;;10.50;9.40;;;;;;;3.75;100.00;95563.16;5018159;28;20057;-63
2023/12/08 01:21:36;;;;;;;11.13;9.30;;;;;;;3.25;100.00;95586.41;5025409;28;20033;-63
2023/12/08 01:24:01;;;;;;;12.35;10.02;;;;;;;2.97;100.00;95612.41;5016906;28;20026;-63
2023/12/08 01:26:27;;;;;;;16.48;13.00;;;;;;;2.71;100.00;95635.69;5033085;28;20760;-62
2023/12/08 01:28:52;;;;;;;19.77;14.95;;;;;;;2.45;100.00;95658.06;5026066;28;20037;-63
2023/12/08 01:31:18;;;;;;;16.25;12.85;;;;;;;2.42;100.00;95671.25;5032154;28;20026;-62
2023/12/08 01:33:43;;;;;;;15.80;12.38;;;;;;;2.34;100.00;95687.28;5017029;28;20038;-62
2023/12/08 01:36:10;;;;;;;14.05;11.85;;;;;;;2.21;100.00;95699.31;5022932;28;20033;-63
2023/12/08 01:38:35;;;;;;;14.48;11.65;;;;;;;2.13;100.00;95698.03;5033385;28;20028;-63
2023/12/08 01:41:00;;;;;;;13.70;11.75;;;;;;;2.07;100.00;95701.00;5029620;28;20541;-63
2023/12/08 01:43:26;;;;;;;14.82;11.45;;;;;;;2.02;100.00;95700.44;5021473;28;20096;-63
2023/12/08 01:45:52;;;;;;;13.25;10.45;;;;;;;1.99;100.00;95703.22;5024613;28;20025;-62
2023/12/08 01:48:18;;;;;;;11.93;10.02;;;;;;;1.95;100.00;95712.94;5032825;28;20025;-62
2023/12/08 01:50:43;;;;;;;13.05;10.55;;;;;;;1.94;100.00;95713.84;5028389;28;20044;-62
2023/12/08 01:53:09;;;;;;;13.55;10.70;;;;;;;1.94;100.00;95713.84;5029056;28;20038;-62
2023/12/08 01:55:35;;;;;;;13.63;10.32;;;;;;;1.90;100.00;95707.16;5017348;28;20034;-63
2023/12/08 01:58:00;;;;;;;13.35;10.38;;;;;;;1.94;100.00;95708.66;5018156;28;20448;-62
2023/12/08 02:00:27;;;;;;;12.70;9.90;;;;;;;1.88;100.00;95702.97;5026554;28;20060;-62
2023/12/08 02:02:54;;;;;;;11.93;10.63;;;;;;;1.82;100.00;95698.97;5023789;28;20017;-62
2023/12/08 02:05:20;;;;;;;13.02;10.52;;;;;;;1.80;100.00;95695.63;5023447;28;20108;-62
2023/12/08 02:07:47;;;;;;;12.13;10.65;;;;;;;1.82;100.00;95686.84;5025954;28;20033;-62
2023/12/08 02:10:12;;;;;;;12.40;10.95;;;;;;;1.80;100.00;95685.25;5022536;28;20410;-63
2023/12/08 02:12:38;;;;;;;12.25;10.63;;;;;;;1.81;100.00;95679.97;5030144;28;20017;-62
2023/12/08 02:15:04;;;;;;;13.95;10.57;;;;;;;1.83;100.00;95688.50;5029169;28;20030;-62
2023/12/08 02:17:38;;;;;;;13.13;10.93;;;;;;;1.81;100.00;95677.38;5032189;28;20037;-62
2023/12/08 02:20:09;;;;;;;11.55;10.32;;;;;;;1.81;100.00;95673.94;5028647;28;20512;-63
2023/12/08 02:22:35;;;;;;;13.10;10.98;;;;;;;1.82;100.00;95693.78;5019987;28;20035;-62
2023/12/08 02:25:00;;;;;;;12.52;10.88;;;;;;;1.83;100.00;95682.47;5025893;28;21879;-63
2023/12/08 02:27:25;;;;;;;15.90;11.23;;;;;;;1.80;100.00;95672.25;5026604;28;20105;-62
2023/12/08 02:29:51;;;;;;;12.30;10.75;;;;;;;1.78;100.00;95674.09;5024701;28;20021;-63
2023/12/08 02:32:56;;;;;;;11.57;10.25;;;;;;;1.73;100.00;95678.75;5032236;28;20028;-62
2023/12/08 02:35:23;;;;;;;11.00;9.50;;;;;;;1.70;100.00;95678.00;4984574;28;20567;-62
2023/12/08 02:37:51;;;;;;;11.43;10.15;;;;;;;1.75;100.00;95679.47;5035869;28;20026;-63
2023/12/08 02:40:18;;;;;;;13.07;9.30;;;;;;;1.76;100.00;95668.16;5032352;28;20013;-63
2023/12/08 02:42:43;;;;;;;14.48;8.70;;;;;;;1.78;100.00;95676.72;5025667;28;20029;-62
2023/12/08 02:45:09;;;;;;;9.13;7.68;;;;;;;1.79;100.00;95678.38;5025941;28;20079;-63
2023/12/08 02:47:34;;;;;;;10.07;8.73;;;;;;;1.78;100.00;95681.91;5035750;28;20104;-62
2023/12/08 02:50:00;;;;;;;11.68;8.82;;;;;;;1.73;100.00;95669.19;5031427;28;20041;-62
2023/12/08 02:52:25;;;;;;;10.00;8.52;;;;;;;1.71;100.00;95665.84;5016766;28;20061;-62
2023/12/08 02:54:51;;;;;;;8.88;7.97;;;;;;;1.71;100.00;95665.84;5024464;28;20430;-62
2023/12/08 02:57:16;;;;;;;8.68;7.82;;;;;;;1.75;100.00;95669.09;5026012;28;20025;-62
2023/12/08 02:59:41;;;;;;;14.60;8.35;;;;;;;1.82;100.00;95657.44;5036035;28;20040;-62
2023/12/08 03:02:07;;;;;;;13.57;8.50;;;;;;;1.90;100.00;95654.38;5019168;28;20018;-62
2023/12/08 03:04:33;;;;;;;11.18;9.95;;;;;;;1.82;100.00;95657.44;5028300;28;20049;-62
2023/12/08 03:06:58;;;;;;;15.48;9.48;;;;;;;1.74;100.00;95654.44;5019682;28;20045;-62
2023/12/08 03:09:24;;;;;;;12.10;10.73;;;;;;;1.70;100.00;95649.44;5028092;28;20025;-62
2023/12/08 03:11:49;;;;;;;12.35;10.18;;;;;;;1.68;100.00;95651.28;5023675;28;20029;-63
2023/12/08 03:14:15;;;;;;;11.82;9.50;;;;;;;1.70;100.00;95648.59;5036237;28;20025;-62
2023/12/08 03:16:40;;;;;;;9.98;8.65;;;;;;;1.62;100.00;95643.00;5036222;28;20064;-62
2023/12/08 03:19:06;;;;;;;8.27;7.30;;;;;;;1.74;100.00;95633.69;5023232;28;20050;-62
2023/12/08 03:21:31;;;;;;;11.93;8.48;;;;;;;1.79;100.00;95634.25;5022923;28;20047;-63
2023/12/08 03:23:57;;;;;;;9.90;8.98;;;;;;;1.78;100.00;95629.97;5028148;28;20100;-62
2023/12/08 03:26:22;;;;;;;12.43;9.02;;;;;;;1.75;100.00;95619.78;5035587;28;20075;-62
2023/12/08 03:28:47;;;;;;;10.35;9.27;;;;;;;1.78;100.00;95624.78;5021998;28;20033;-62
2023/12/08 03:31:30;;;;;;;14.90;9.52;;;;;;;1.70;100.00;95618.28;5035864;28;20158;-62
2023/12/08 03:33:56;;;;;;;9.73;8.68;;;;;;;1.67;100.00;95618.47;5031292;28;20109;-62
2023/12/08 03:36:22;;;;;;;9.07;8.10;;;;;;;1.65;100.00;95619.47;5026185;28;20107;-62
2023/12/08 03:38:47;;;;;;;10.13;8.00;;;;;;;1.67;100.00;95612.44;5027962;28;20027;-62
2023/12/08 03:41:12;;;;;;;9.77;6.65;;;;;;;1.68;100.00;95607.16;5024636;28;20030;-62
2023/12/08 03:43:38;;;;;;;11.98;8.05;;;;;;;1.70;100.00;95592.34;5030579;28;20026;-62
2023/12/08 03:46:07;;;;;;;8.85;7.40;;;;;;;1.70;100.00;95589.75;5024016;28;20044;-62
2023/12/08 03:48:34;;;;;;;8.20;7.38;;;;;;;1.65;100.00;95581.38;5028347;28;20075;-62
2023/12/08 03:51:00;;;;;;;8.45;7.50;;;;;;;1.64;100.00;95573.69;5027374;28;20466;-62
2023/12/08 03:53:25;;;;;;;8.80;7.32;;;;;;;1.67;100.00;95573.50;5025673;28;20100;-62
2023/12/08 03:55:51;;;;;;;10.20;6.93;;;;;;;1.69;100.00;95575.09;5022235;28;20095;-62
2023/12/08 03:58:16;;;;;;;8.25;7.15;;;;;;;1.71;100.00;95575.84;5035820;28;20021;-62
2023/12/08 04:00:42;;;;;;;7.07;6.15;;;;;;;1.74;100.00;95576.56;5035886;28;20063;-62
2023/12/08 04:03:07;;;;;;;6.65;5.60;;;;;;;1.73;100.00;95580.09;5031394;28;20510;-62
2023/12/08 04:05:32;;;;;;;6.82;5.60;;;;;;;1.74;100.00;95574.81;5032765;28;20033;-62
2023/12/08 04:07:58;;;;;;;7.22;5.75;;;;;;;1.75;100.00;95576.47;5028141;28;20049;-62
2023/12/08 04:10:24;;;;;;;6.55;5.63;;;;;;;1.75;100.00;95583.44;5029353;28;20089;-62
2023/12/08 04:12:49;;;;;;;6.18;5.75;;;;;;;1.74;100.00;95576.56;5031654;28;20109;-62
2023/12/08 04:15:14;;;;;;;7.60;6.90;;;;;;;1.74;100.00;95571.38;5029349;28;20029;-62
2023/12/08 04:17:40;;;;;;;9.40;7.18;;;;;;;1.70;100.00;95568.13;5031653;28;20116;-62
2023/12/08 04:20:06;;;;;;;10.32;9.23;;;;;;;1.71;100.00;95562.84;5028499;28;20033;-62
2023/12/08 04:22:34;;;;;;;22.55;16.70;;;;;;;1.71;100.00;95562.84;5029056;28;20053;-62
2023/12/08 04:24:59;;;;;;;18.23;13.27;;;;;;;1.71;100.00;95560.25;5024901;28;20037;-63
2023/12/08 04:27:24;;;;;;;11.45;9.48;;;;;;;1.73;100.00;95564.53;5029711;28;20029;-62
2023/12/08 04:29:50;;;;;;;9.73;7.47;;;;;;;1.74;100.00;95561.00;5018073;28;20037;-62
2023/12/08 04:32:15;;;;;;;8.80;7.05;;;;;;;1.76;100.00;95554.78;5019026;28;20100;-62
2023/12/08 04:34:40;;;;;;;12.05;9.43;;;;;;;1.85;100.00;95553.38;5034989;28;20033;-62
2023/12/08 04:37:06;;;;;;;12.60;9.75;;;;;;;1.84;100.00;95543.94;5036247;28;20489;-62
2023/12/08 04:39:31;;;;;;;6.40;5.80;;;;;;;1.85;100.00;95545.59;5028679;28;20466;-62
2023/12/08 04:41:57;;;;;;;7.05;6.07;;;;;;;1.89;100.00;95551.47;5024820;28;20037;-62
2023/12/08 04:44:22;;;;;;;5.68;5.20;;;;;;;1.90;100.00;95547.94;5019473;28;20025;-62
2023/12/08 04:46:47;;;;;;;6.53;4.70;;;;;;;1.91;100.00;95547.00;5029612;28;20478;-62
2023/12/08 04:49:13;;;;;;;4.95;4.55;;;;;;;1.91;100.00;95547.84;5020949;28;20032;-62
2023/12/08 04:51:42;;;;;;;7.10;6.00;;;;;;;1.95;100.00;95543.28;5034291;28;20035;-63
2023/12/08 04:54:07;;;;;;;3.97;3.78;;;;;;;1.97;100.00;95544.88;5018821;28;20053;-62
2023/12/08 04:56:33;;;;;;;4.70;4.22;;;;;;;2.05;100.00;95548.75;5023093;28;20064;-62
2023/12/08 04:58:58;;;;;;;4.90;4.50;;;;;;;2.06;100.00;95540.91;5032499;28;20036;-62
2023/12/08 05:01:23;;;;;;;8.05;7.30;;;;;;;2.07;100.00;95541.72;5034636;28;20700;-62
2023/12/08 05:03:50;;;;;;;6.50;5.90;;;;;;;2.08;100.00;95538.19;5017281;28;20041;-62
2023/12/08 05:06:16;;;;;;;8.48;7.63;;;;;;;2.05;100.00;95539.22;5032795;28;20029;-62
2023/12/08 05:08:41;;;;;;;9.27;8.45;;;;;;;1.96;100.00;95535.41;5020789;28;20501;-62
2023/12/08 05:11:07;;;;;;;9.35;8.45;;;;;;;1.95;100.00;95527.72;5022393;28;20022;-62
2023/12/08 05:13:33;;;;;;;8.40;7.65;;;;;;;2.03;100.00;95525.50;5020158;28;20121;-63
2023/12/08 05:15:58;;;;;;;11.00;9.02;;;;;;;1.94;100.00;95523.44;5029399;28;20053;-62
2023/12/08 05:18:24;;;;;;;8.63;7.93;;;;;;;1.88;100.00;95524.69;5025588;28;20096;-62
2023/12/08 05:20:49;;;;;;;9.10;8.18;;;;;;;1.86;100.00;95526.50;5022906;28;20026;-63
2023/12/08 05:23:15;;;;;;;8.50;7.68;;;;;;;1.84;100.00;95516.22;5021613;28;20034;-62
2023/12/08 05:25:40;;;;;;;10.60;8.90;;;;;;;1.85;100.00;95517.03;5030235;28;20025;-62
2023/12/08 05:28:05;;;;;;;13.23;11.82;;;;;;;1.85;100.00;95512.69;5024568;28;20040;-62
2023/12/08 05:30:31;;;;;;;11.25;10.23;;;;;;;1.85;100.00;95512.69;5027872;28;20028;-62
2023/12/08 05:32:56;;;;;;;10.43;9.52;;;;;;;1.86;100.00;95511.78;5028707;28;20038;-63
2023/12/08 05:35:22;;;;;;;12.05;9.90;;;;;;;1.84;100.00;95508.44;5027618;28;20398;-63
2023/12/08 05:37:47;;;;;;;11.45;10.45;;;;;;;1.81;100.00;95503.44;5019764;28;20033;-63
2023/12/08 05:40:13;;;;;;;12.18;10.98;;;;;;;1.77;100.00;95494.16;5023730;28;20030;-62
2023/12/08 05:42:38;;;;;;;15.13;13.57;;;;;;;1.75;100.00;95490.81;5018134;28;20049;-62
2023/12/08 05:45:04;;;;;;;13.20;11.82;;;;;;;1.75;100.00;95484.78;5021511;28;20029;-62
2023/12/08 05:47:30;;;;;;;11.63;10.52;;;;;;;1.78;100.00;95479.41;5022216;28;20025;-63
2023/12/08 05:49:55;;;;;;;12.10;10.90;;;;;;;1.79;100.00;95476.75;5025621;28;20113;-62
2023/12/08 05:52:20;;;;;;;12.63;11.40;;;;;;;1.77;100.00;95478.59;5029792;28;20076;-63
2023/12/08 05:54:46;;;;;;;12.27;10.85;;;;;;;1.73;100.00;95477.09;5033792;28;20029;-63
2023/12/08 05:57:11;;;;;;;11.18;9.63;;;;;;;1.76;100.00;95469.13;5031375;28;20045;-63
2023/12/08 05:59:37;;;;;;;9.45;8.65;;;;;;;1.79;100.00;95481.09;5020605;28;20407;-63
2023/12/08 06:02:02;;;;;;;7.45;6.85;;;;;;;1.84;100.00;95479.03;5033137;28;20034;-63
2023/12/08 06:04:28;;;;;;;7.60;7.00;;;;;;;1.86;100.00;95482.38;5025463;28;20026;-63
2023/12/08 06:06:53;;;;;;;9.65;8.85;;;;;;;1.86;100.00;95487.56;5024231;28;20032;-63
2023/12/08 06:09:19;;;;;;;11.25;10.27;;;;;;;1.79;100.00;95479.34;5020803;28;20048;-63
2023/12/08 06:11:44;;;;;;;14.77;11.35;;;;;;;1.76;100.00;95487.28;5022870;28;20290;-63
2023/12/08 06:14:10;;;;;;;13.52;12.27;;;;;;;1.76;100.00;95487.28;5023742;28;20021;-64
2023/12/08 06:16:36;;;;;;;12.65;11.23;;;;;;;1.79;100.00;95484.53;5030762;28;20029;-63
2023/12/08 06:19:04;;;;;;;12.00;10.80;;;;;;;1.81;100.00;95484.41;5021461;28;20030;-63
2023/12/08 06:21:29;;;;;;;13.52;12.18;;;;;;;1.80;100.00;95478.41;5026879;28;20029;-63
2023/12/08 06:23:56;;;;;;;13.45;12.10;;;;;;;1.80;100.00;95474.97;5032190;28;20045;-63
2023/12/08 06:26:21;;;;;;;12.57;11.43;;;;;;;1.78;100.00;95472.47;5034586;28;20087;-64
2023/12/08 06:28:47;;;;;;;16.23;14.48;;;;;;;1.76;100.00;95470.88;5026495;28;20021;-63
2023/12/08 06:31:12;;;;;;;15.57;13.98;;;;;;;1.78;100.00;95474.22;5036228;28;20634;-63
2023/12/08 06:33:38;;;;;;;15.85;13.27;;;;;;;1.81;100.00;95474.88;5026179;28;20048;-63
2023/12/08 06:36:04;;;;;;;16.90;13.07;;;;;;;1.83;100.00;95470.44;5019457;28;20033;-63
2023/12/08 06:38:30;;;;;;;11.02;10.02;;;;;;;1.86;100.00;95469.38;5022230;28;20064;-62
2023/12/08 06:40:55;;;;;;;16.48;13.30;;;;;;;1.87;100.00;95468.47;5026148;28;20033;-62
2023/12/08 06:43:21;;;;;;;30.27;20.08;;;;;;;1.90;100.00;95473.50;5025232;28;20037;-62
2023/12/08 06:45:47;;;;;;;44.35;30.55;;;;;;;1.86;100.00;95470.22;5025808;28;20529;-63
2023/12/08 06:48:12;;;;;;;43.72;29.85;;;;;;;1.85;100.00;95465.97;5018546;28;20035;-63
2023/12/08 06:50:38;;;;;;;41.75;31.10;;;;;;;1.83;100.00;95466.97;5030693;28;20079;-64
2023/12/08 06:53:03;;;;;;;29.40;21.60;;;;;;;1.81;100.00;95466.25;5025770;28;20064;-63
2023/12/08 06:55:28;;;;;;;16.17;13.20;;;;;;;1.82;100.00;95457.53;5027359;28;20025;-64
2023/12/08 06:57:54;;;;;;;12.45;11.15;;;;;;;1.84;100.00;95461.72;5025914;28;20029;-63
2023/12/08 07:00:19;;;;;;;10.98;9.93;;;;;;;1.86;100.00;95451.22;5024919;28;20120;-64
2023/12/08 07:02:45;;;;;;;10.25;9.35;;;;;;;1.85;100.00;95450.41;5016763;28;20026;-63
2023/12/08 07:05:10;;;;;;;10.13;9.23;;;;;;;1.86;100.00;95453.81;5025337;28;20028;-64
2023/12/08 07:07:36;;;;;;;10.32;9.32;;;;;;;1.88;100.00;95459.78;5021347;28;20036;-62
2023/12/08 07:10:01;;;;;;;11.32;10.30;;;;;;;1.86;100.00;95456.41;5037737;28;20471;-62
2023/12/08 07:12:27;;;;;;;9.90;8.90;;;;;;;1.85;100.00;95459.94;5029159;28;20410;-62
2023/12/08 07:14:52;;;;;;;11.88;9.60;;;;;;;1.82;100.00;95460.97;5013196;28;20044;-63
2023/12/08 07:17:18;;;;;;;11.50;10.43;;;;;;;1.81;100.00;95454.13;5030769;28;20087;-63
2023/12/08 07:19:43;;;;;;;11.23;10.00;;;;;;;1.83;100.00;95464.38;5027332;28;20640;-63
2023/12/08 07:22:09;;;;;;;11.95;10.30;;;;;;;1.84;100.00;95463.47;5029899;28;20558;-62
2023/12/08 07:24:37;;;;;;;9.77;8.98;;;;;;;1.86;100.00;95462.44;5027214;28;20686;-62
2023/12/08 07:27:03;;;;;;;10.02;9.02;;;;;;;1.87;100.00;95460.66;5024607;28;20026;-62
2023/12/08 07:29:28;;;;;;;10.13;9.02;;;;;;;1.88;100.00;95464.13;5025237;28;20033;-62
2023/12/08 07:31:54;;;;;;;9.82;8.85;;;;;;;1.90;100.00;95468.28;5019975;28;20057;-63
2023/12/08 07:34:19;;;;;;;11.68;10.57;;;;;;;1.92;100.00;95453.44;5026136;28;20076;-62
2023/12/08 07:36:44;;;;;;;11.93;10.52;;;;;;;1.92;100.00;95461.25;5021121;28;20022;-62
2023/12/08 07:39:10;;;;;;;16.15;14.43;;;;;;;1.92;100.00;95457.78;5032631;28;20127;-62
2023/12/08 07:41:37;;;;;;;20.08;18.10;;;;;;;1.93;100.00;95449.94;5035210;28;20030;-62
2023/12/08 07:44:02;;;;;;;18.17;16.27;;;;;;;1.95;100.00;95460.19;5030890;28;20025;-62
2023/12/08 07:46:27;;;;;;;13.57;12.23;;;;;;;1.96;100.00;95454.06;5031612;28;20056;-62
2023/12/08 07:48:53;;;;;;;13.80;12.43;;;;;;;1.97;100.00;95446.22;5027988;28;20022;-63
2023/12/08 07:51:19;;;;;;;22.92;20.67;;;;;;;1.97;100.00;95448.81;5026822;28;21018;-62
2023/12/08 07:53:44;;;;;;;27.58;24.77;;;;;;;1.99;100.00;95448.72;5019307;28;20038;-63
2023/12/08 07:56:12;;;;;;;24.98;22.58;;;;;;;2.00;100.00;95440.81;5021147;28;20091;-62
2023/12/08 07:58:37;;;;;;;22.88;20.70;;;;;;;2.00;100.00;95448.59;5019220;28;20064;-62
2023/12/08 08:01:03;;;;;;;20.20;18.15;;;;;;;2.00;100.00;95446.00;5025627;28;20023;-62
2023/12/08 08:03:29;;;;;;;20.88;18.73;;;;;;;2.02;100.00;95450.28;5016783;28;20042;-62
2023/12/08 08:05:54;;;;;;;21.33;19.23;;;;;;;2.03;100.00;95446.75;5024282;28;20032;-62
2023/12/08 08:08:21;;;;;;;21.08;18.98;;;;;;;2.05;100.00;95439.69;5026701;28;20101;-62
2023/12/08 08:10:46;;;;;;;21.05;19.13;;;;;;;2.06;100.00;95436.16;5029229;28;20030;-63
2023/12/08 08:13:12;;;;;;;22.90;20.63;;;;;;;2.07;100.00;95435.22;5025143;28;20021;-63
2023/12/08 08:15:37;;;;;;;19.73;17.83;;;;;;;2.08;100.00;95436.91;5035046;28;20056;-62
2023/12/08 08:18:03;;;;;;;20.00;17.98;;;;;;;2.12;100.00;95438.41;5022364;28;20033;-62
2023/12/08 08:20:28;;;;;;;22.98;20.33;;;;;;;2.11;100.00;95426.34;5024204;28;20473;-62
2023/12/08 08:22:54;;;;;;;21.92;19.73;;;;;;;2.12;100.00;95435.81;5017730;28;20033;-62
2023/12/08 08:25:19;;;;;;;21.75;19.58;;;;;;;2.13;100.00;95425.31;5029471;28;20029;-62
2023/12/08 08:27:45;;;;;;;22.65;20.45;;;;;;;2.19;100.00;95424.09;5028538;28;20063;-62
2023/12/08 08:30:11;;;;;;;22.23;19.90;;;;;;;2.19;100.00;95425.84;5031487;28;20503;-62
2023/12/08 08:32:36;;;;;;;19.88;17.83;;;;;;;2.23;100.00;95422.94;5021700;28;20080;-62
2023/12/08 08:35:02;;;;;;;22.30;18.92;;;;;;;2.26;100.00;95419.34;5020921;28;20034;-62
2023/12/08 08:37:28;;;;;;;28.30;23.70;;;;;;;2.31;100.00;95419.03;5019358;28;20029;-62
2023/12/08 08:39:53;;;;;;;26.35;23.42;;;;;;;2.35;100.00;95417.91;5019696;28;20029;-62
2023/12/08 08:42:19;;;;;;;21.60;19.42;;;;;;;2.35;100.00;95420.53;5024643;28;20022;-63
2023/12/08 08:44:45;;;;;;;21.77;19.52;;;;;;;2.36;100.00;95417.00;5025657;28;20079;-62
2023/12/08 08:47:12;;;;;;;17.60;15.98;;;;;;;2.38;100.00;95409.94;5022426;28;20025;-63
2023/12/08 08:49:37;;;;;;;16.85;15.25;;;;;;;2.40;100.00;95408.06;5024495;28;20056;-62
2023/12/08 08:52:03;;;;;;;22.10;20.10;;;;;;;2.44;100.00;95406.94;5032737;28;20087;-63
2023/12/08 08:54:28;;;;;;;22.15;20.13;;;;;;;2.49;100.00;95411.84;5034503;28;20466;-62
2023/12/08 08:56:54;;;;;;;21.77;19.70;;;;;;;2.52;100.00;95414.22;5031872;28;20071;-63
2023/12/08 08:59:19;;;;;;;18.83;17.02;;;;;;;2.56;100.00;95411.34;5026431;28;20017;-63
2023/12/08 09:01:45;;;;;;;19.90;17.92;;;;;;;2.60;100.00;95404.16;5018857;28;20025;-63
2023/12/08 09:04:10;;;;;;;23.35;20.95;;;;;;;2.66;100.00;95405.53;5025114;28;20052;-63
2023/12/08 09:06:35;;;;;;;23.15;20.80;;;;;;;2.67;100.00;95399.41;5018072;28;20060;-63
2023/12/08 09:09:03;;;;;;;24.02;21.65;;;;;;;2.72;100.00;95397.31;5018391;28;20022;-62
2023/12/08 09:11:29;;;;;;;25.38;22.42;;;;;;;2.71;100.00;95396.50;5024978;28;20025;-62
2023/12/08 09:13:54;;;;;;;30.58;27.60;;;;;;;2.72;100.00;95390.38;5019423;28;20068;-63
2023/12/08 09:16:20;;;;;;;24.08;21.67;;;;;;;2.69;100.00;95387.97;5029190;28;20108;-63
2023/12/08 09:18:45;;;;;;;23.45;21.05;;;;;;;2.69;100.00;95387.13;5025889;28;20379;-63
2023/12/08 09:21:10;;;;;;;24.67;21.55;;;;;;;2.72;100.00;95387.78;5025988;28;20073;-63
2023/12/08 09:23:36;;;;;;;22.33;20.30;;;;;;;2.77;100.00;95389.22;5025689;28;20499;-63
2023/12/08 09:26:01;;;;;;;22.25;20.00;;;;;;;2.82;100.00;95382.81;5022701;28;20057;-63
2023/12/08 09:28:26;;;;;;;23.30;20.90;;;;;;;2.82;100.00;95384.56;5023983;28;20029;-63
2023/12/08 09:30:52;;;;;;;30.70;27.42;;;;;;;2.81;100.00;95378.53;5021894;28;20637;-63
2023/12/08 09:33:17;;;;;;;41.50;34.03;;;;;;;2.84;100.00;95383.53;5030453;28;20409;-62
2023/12/08 09:35:43;;;;;;;66.30;46.13;;;;;;;2.83;100.00;95387.06;5025857;28;20464;-63
2023/12/08 09:38:08;;;;;;;59.78;40.67;;;;;;;2.89;100.00;95387.59;5025129;28;20483;-62
2023/12/08 09:40:37;;;;;;;48.78;38.13;;;;;;;2.90;100.00;95384.88;5030971;28;20025;-63
2023/12/08 09:43:21;;;;;;;38.50;32.25;;;;;;;2.96;100.00;95399.22;5029792;28;20025;-63
2023/12/08 09:45:47;;;;;;;37.35;31.80;;;;;;;2.92;100.00;95396.03;5029349;28;20056;-63
2023/12/08 09:48:13;;;;;;;43.85;34.38;;;;;;;2.94;100.00;95391.53;5027958;28;20101;-62
2023/12/08 09:50:39;;;;;;;35.95;29.02;;;;;;;2.98;100.00;95398.19;5018024;28;20021;-63
2023/12/08 09:53:05;;;;;;;28.25;24.20;;;;;;;2.95;100.00;95394.97;5020152;28;20041;-63
2023/12/08 09:55:32;;;;;;;28.42;23.63;;;;;;;2.98;100.00;95400.81;5024166;28;20449;-63
2023/12/08 09:57:59;;;;;;;26.00;22.63;;;;;;;3.01;100.00;95394.56;5024601;28;20486;-63
2023/12/08 10:00:24;;;;;;;18.48;16.58;;;;;;;3.01;100.00;95398.00;5022749;28;20030;-63
2023/12/08 10:02:49;;;;;;;15.35;13.75;;;;;;;3.02;100.00;95396.25;5028023;28;20509;-63
2023/12/08 10:05:15;;;;;;;16.27;11.30;;;;;;;3.00;100.00;95391.13;5034552;28;20026;-63
2023/12/08 10:07:43;;;;;;;14.55;13.18;;;;;;;3.07;100.00;95390.72;5014852;28;20044;-63
2023/12/08 10:10:09;;;;;;;17.98;13.27;;;;;;;3.14;100.00;95387.59;5019810;28;20052;-63
2023/12/08 10:12:35;;;;;;;16.70;13.70;;;;;;;3.13;100.00;95383.34;5024608;28;20152;-62
2023/12/08 10:15:01;;;;;;;15.18;12.80;;;;;;;3.14;100.00;95376.38;5020815;28;20096;-63
2023/12/08 10:17:27;;;;;;;15.30;13.68;;;;;;;3.12;100.00;95379.06;5019781;28;20498;-63
2023/12/08 10:20:10;;;;;;;20.90;15.63;;;;;;;3.15;100.00;95381.47;5021845;28;20021;-63
2023/12/08 10:22:45;;;;;;;22.35;19.73;;;;;;;3.15;100.00;95357.22;5033818;28;20030;-63
2023/12/08 10:25:10;;;;;;;31.13;28.02;;;;;;;3.17;100.00;95351.91;5018282;28;20030;-63
2023/12/08 10:27:36;;;;;;;24.00;21.00;;;;;;;3.19;100.00;95363.03;5033456;28;20102;-63
2023/12/08 10:30:03;;;;;;;20.23;18.17;;;;;;;3.18;100.00;95358.75;5026857;28;20037;-63
2023/12/08 10:32:28;;;;;;;18.67;16.88;;;;;;;3.04;100.00;95360.56;5028876;28;20022;-63
2023/12/08 10:34:56;;;;;;;26.48;22.65;;;;;;;3.03;100.00;95351.09;5026624;28;20113;-63
2023/12/08 10:37:22;;;;;;;14.73;13.20;;;;;;;2.97;100.00;95351.47;5036418;28;20105;-63
2023/12/08 10:39:48;;;;;;;11.35;10.30;;;;;;;2.92;100.00;95348.38;5027467;28;20057;-63
2023/12/08 10:42:13;;;;;;;12.80;11.23;;;;;;;2.97;100.00;95346.28;5025011;28;20076;-63
2023/12/08 10:44:39;;;;;;;17.75;16.08;;;;;;;2.97;100.00;95339.31;5022972;28;20080;-63
2023/12/08 10:47:05;;;;;;;15.80;14.40;;;;;;;2.98;100.00;95335.78;5025734;28;20067;-63
2023/12/08 10:49:31;;;;;;;11.95;10.75;;;;;;;2.99;100.00;95339.25;5018557;28;20049;-63
2023/12/08 10:51:59;;;;;;;14.85;13.32;;;;;;;3.00;100.00;95328.72;5025794;28;20671;-63
2023/12/08 10:54:25;;;;;;;15.35;13.93;;;;;;;3.02;100.00;95328.63;5023073;28;20068;-63
2023/12/08 10:56:50;;;;;;;15.35;13.93;;;;;;;3.03;100.00;95330.28;5028471;28;20035;-63
2023/12/08 10:59:21;;;;;;;15.52;14.02;;;;;;;3.05;100.00;95325.81;5028333;28;20041;-63
2023/12/08 11:01:48;;;;;;;17.60;15.98;;;;;;;3.07;100.00;95312.69;5033094;28;20014;-63
2023/12/08 11:04:19;;;;;;;18.45;16.75;;;;;;;3.07;100.00;95310.91;5019363;28;20021;-63
2023/12/08 11:06:56;;;;;;;18.25;16.55;;;;;;;3.10;100.00;95302.09;5033961;28;20457;-64
2023/12/08 11:09:24;;;;;;;21.50;19.40;;;;;;;3.14;100.00;95304.34;5024098;28;20420;-63
2023/12/08 11:12:03;;;;;;;18.98;16.95;;;;;;;3.18;100.00;95314.53;5021652;28;20064;-63
2023/12/08 11:14:46;;;;;;;99.90;82.45;;;;;;;3.22;100.00;95305.63;5031617;28;20021;-63
2023/12/08 11:17:43;;;;;;;25.63;22.83;;;;;;;3.20;100.00;95297.91;5030912;28;20024;-63